Time;durP1;ratioP1;P1;durP2;ratioP2;P2;SDS_P1;SDS_P2;PMS_P1;PMS_P2;Temp;Humidity;BMP_temperature;BMP_pressure;BME280_temperature;BME280_humidity;BME280_pressure;Samples;Min_cycle;Max_cycle;Signal;HPM_P1;HPM_P2
2023/01/26 00:00:46;;;;;;;181.20;46.72;;;;;;;-145.18;100.00;46709.22;6242303;23;20012;-69
2023/01/26 00:03:11;;;;;;;166.00;46.50;;;;;;;-145.18;100.00;46713.13;6242416;22;20018;-69
2023/01/26 00:05:37;;;;;;;167.57;44.60;;;;;;;-145.18;100.00;46711.19;6242619;23;20102;-68
2023/01/26 00:08:03;;;;;;;157.67;43.07;;;;;;;-145.18;100.00;46713.13;6242510;23;20007;-69
2023/01/26 00:10:29;;;;;;;158.38;43.40;;;;;;;-145.18;100.00;46713.13;6216030;23;20004;-68
2023/01/26 00:12:55;;;;;;;182.77;45.80;;;;;;;-145.18;100.00;46711.19;6242238;23;20012;-68
2023/01/26 00:15:20;;;;;;;160.68;42.00;;;;;;;-145.18;100.00;46717.03;6242423;23;20008;-68
2023/01/26 00:17:46;;;;;;;172.43;45.27;;;;;;;-145.18;100.00;46709.22;6242382;23;20008;-68
2023/01/26 00:20:11;;;;;;;156.83;42.40;;;;;;;-145.18;100.00;46709.22;6242317;23;20008;-68
2023/01/26 00:22:37;;;;;;;155.87;42.23;;;;;;;-145.18;100.00;46713.13;6242280;23;20600;-68
2023/01/26 00:25:02;;;;;;;150.97;42.37;;;;;;;-145.18;100.00;46711.19;6242036;23;20035;-68
2023/01/26 00:27:28;;;;;;;160.43;43.80;;;;;;;-145.18;100.00;46705.31;6241809;23;20503;-68
2023/01/26 00:29:53;;;;;;;179.13;45.60;;;;;;;-145.18;100.00;46711.19;6242319;23;20036;-68
2023/01/26 00:32:18;;;;;;;153.57;40.97;;;;;;;-145.18;100.00;46713.13;6242090;23;20000;-69
2023/01/26 00:34:44;;;;;;;157.97;44.57;;;;;;;-145.18;100.00;46713.13;6242454;23;20042;-68
2023/01/26 00:37:09;;;;;;;159.37;43.73;;;;;;;-145.18;100.00;46713.13;6242221;23;20031;-68
2023/01/26 00:39:34;;;;;;;167.33;46.50;;;;;;;-145.18;100.00;46713.13;6242197;23;20091;-68
2023/01/26 00:42:05;;;;;;;165.10;45.03;;;;;;;-145.18;100.00;46713.13;6241553;23;20036;-68
2023/01/26 00:44:31;;;;;;;153.88;41.95;;;;;;;-145.18;100.00;46717.03;6216527;23;20008;-68
2023/01/26 00:46:57;;;;;;;168.63;44.88;;;;;;;-145.18;100.00;46717.03;6241986;23;20008;-68
2023/01/26 00:49:22;;;;;;;161.93;43.57;;;;;;;-145.18;100.00;46711.19;6241779;23;20338;-68
2023/01/26 00:51:48;;;;;;;152.83;43.53;;;;;;;-145.18;100.00;46717.03;6241623;23;20345;-68
2023/01/26 00:54:13;;;;;;;168.97;45.30;;;;;;;-145.18;100.00;46707.28;6215498;23;20004;-68
2023/01/26 00:56:39;;;;;;;160.70;46.43;;;;;;;-145.18;100.00;46711.19;6242129;23;20012;-69
2023/01/26 00:59:05;;;;;;;155.67;43.20;;;;;;;-145.18;100.00;46715.09;6241549;23;20066;-69
2023/01/26 01:01:31;;;;;;;149.23;41.50;;;;;;;-145.18;100.00;46715.09;6242070;22;20008;-69
2023/01/26 01:03:56;;;;;;;166.07;43.60;;;;;;;-145.18;100.00;46709.22;6241859;23;20385;-69
2023/01/26 01:06:22;;;;;;;160.00;42.77;;;;;;;-145.18;100.00;46715.09;6241544;23;20234;-69
2023/01/26 01:08:47;;;;;;;152.57;44.57;;;;;;;-145.18;100.00;46711.19;6241647;23;20024;-69
2023/01/26 01:11:13;;;;;;;156.30;42.40;;;;;;;-145.18;100.00;46711.19;6241886;23;20008;-69
2023/01/26 01:13:39;;;;;;;150.53;44.20;;;;;;;-145.18;100.00;46699.47;6241893;23;20015;-69
2023/01/26 01:16:10;;;;;;;163.90;44.28;;;;;;;-145.18;100.00;46713.13;6241145;23;20053;-69
2023/01/26 01:18:36;;;;;;;160.82;44.35;;;;;;;-145.18;100.00;46711.19;6242118;23;20338;-69
2023/01/26 01:21:06;;;;;;;167.33;46.13;;;;;;;-145.18;100.00;46717.03;6241258;23;20008;-69
2023/01/26 01:23:31;;;;;;;156.45;44.97;;;;;;;-145.18;100.00;46713.13;6242078;23;20434;-69
2023/01/26 01:25:58;;;;;;;157.97;44.37;;;;;;;-145.18;100.00;46711.19;6241409;23;20095;-69
2023/01/26 01:28:24;;;;;;;144.70;39.78;;;;;;;-145.18;100.00;46713.13;6241932;23;20456;-70
2023/01/26 01:30:49;;;;;;;147.60;42.23;;;;;;;-145.18;100.00;46711.19;6241555;23;20008;-69
2023/01/26 01:33:15;;;;;;;154.23;44.10;;;;;;;-145.18;100.00;46711.19;6241969;23;20016;-69
2023/01/26 01:35:40;;;;;;;144.93;41.60;;;;;;;-145.18;100.00;46717.03;6241564;23;20333;-69
2023/01/26 01:38:05;;;;;;;160.77;43.47;;;;;;;-145.18;100.00;46713.13;6241276;23;20086;-69
2023/01/26 01:40:31;;;;;;;160.67;44.70;;;;;;;-145.18;100.00;46713.13;6241530;23;20016;-69
2023/01/26 01:42:56;;;;;;;155.00;44.10;;;;;;;-145.18;100.00;46713.13;6241480;23;20937;-69
2023/01/26 01:45:46;;;;;;;151.20;42.80;;;;;;;-145.18;100.00;46713.13;6241444;23;20016;-70
2023/01/26 01:48:18;;;;;;;152.15;44.50;;;;;;;-145.18;100.00;46719.00;6241633;23;20460;-70
2023/01/26 01:50:44;;;;;;;142.77;39.80;;;;;;;-145.18;100.00;46717.03;6241681;23;20004;-70
2023/01/26 01:53:16;;;;;;;146.10;42.70;;;;;;;-145.18;100.00;46715.09;6241882;23;20008;-70
2023/01/26 01:55:41;;;;;;;152.57;41.80;;;;;;;-145.18;100.00;46707.28;6242088;23;20011;-70
2023/01/26 01:58:07;;;;;;;130.00;37.53;;;;;;;-145.18;100.00;46719.00;6243329;23;20008;-70
2023/01/26 02:00:33;;;;;;;138.97;38.73;;;;;;;-145.18;100.00;46707.28;6243555;23;20422;-70
2023/01/26 02:03:09;;;;;;;149.87;41.30;;;;;;;-145.18;100.00;46715.09;6216557;23;20623;-70
2023/01/26 02:05:59;;;;;;;140.02;40.30;;;;;;;-145.18;100.00;46715.09;6243866;23;20091;-70
2023/01/26 02:08:35;;;;;;;128.65;36.83;;;;;;;-145.18;100.00;46715.09;6181252;23;20012;-70
2023/01/26 02:11:06;;;;;;;124.97;37.65;;;;;;;-145.18;100.00;46717.03;6243293;23;20030;-70
2023/01/26 02:13:33;;;;;;;134.63;38.65;;;;;;;-145.18;100.00;46715.09;6243731;23;20418;-70
2023/01/26 02:15:59;;;;;;;130.07;37.13;;;;;;;-145.18;100.00;46713.13;6243442;23;20358;-70
2023/01/26 02:18:24;;;;;;;142.40;40.22;;;;;;;-145.18;100.00;46717.03;6242955;23;20464;-70
2023/01/26 02:20:53;;;;;;;126.57;38.23;;;;;;;-145.18;100.00;46713.13;6243244;23;20008;-70
2023/01/26 02:23:48;;;;;;;128.52;36.95;;;;;;;-145.18;100.00;46713.13;6243528;23;20004;-70
2023/01/26 02:26:17;;;;;;;128.38;37.10;;;;;;;-145.18;100.00;46715.09;6243567;23;20083;-71
2023/01/26 02:28:44;;;;;;;138.13;37.53;;;;;;;-145.18;100.00;46717.03;6243327;23;20008;-70
2023/01/26 02:31:10;;;;;;;137.88;38.38;;;;;;;-145.18;100.00;46715.09;6243103;23;20019;-70
2023/01/26 02:33:36;;;;;;;126.30;38.17;;;;;;;-145.18;100.00;46711.19;6243543;23;20079;-70
2023/01/26 02:36:03;;;;;;;129.90;36.40;;;;;;;-145.18;100.00;46717.03;6243203;23;20031;-70
2023/01/26 02:38:43;;;;;;;141.35;37.53;;;;;;;-145.18;100.00;46715.09;6242789;23;20491;-70
2023/01/26 02:42:37;;;;;;;132.90;38.25;;;;;;;-145.18;100.00;46715.09;6242808;23;20095;-70
2023/01/26 02:43:59;;;;;;;129.38;34.88;;;;;;;-145.18;100.00;46715.09;6243168;23;20014;-70
2023/01/26 02:46:24;;;;;;;129.80;36.43;;;;;;;-145.18;100.00;46717.03;6216384;23;20397;-70
2023/01/26 02:51:33;;;;;;;118.13;35.55;;;;;;;-145.18;100.00;46720.94;6220450;23;20018;-70
2023/01/26 02:53:59;;;;;;;127.90;37.03;;;;;;;-145.18;100.00;46719.00;6243036;23;20083;-70
2023/01/26 02:56:24;;;;;;;118.77;35.53;;;;;;;-145.18;100.00;46713.13;6243070;23;20054;-70
2023/01/26 02:58:50;;;;;;;128.07;34.50;;;;;;;-145.18;100.00;46713.13;6242992;23;20012;-70
2023/01/26 03:03:50;;;;;;;134.80;34.97;;;;;;;-145.18;100.00;46715.09;6270693;22;20024;-72
2023/01/26 03:06:16;;;;;;;114.20;34.70;;;;;;;-145.18;100.00;46717.03;6274994;22;20015;-72
2023/01/26 03:08:41;;;;;;;119.33;33.30;;;;;;;-145.18;100.00;46711.19;6274750;22;20015;-72
2023/01/26 03:11:08;;;;;;;123.67;34.23;;;;;;;-145.18;100.00;46715.09;6275651;22;20012;-72
2023/01/26 03:13:34;;;;;;;131.45;33.65;;;;;;;-145.18;100.00;46715.09;6275295;22;20007;-72
2023/01/26 03:16:05;;;;;;;116.00;32.72;;;;;;;-145.18;100.00;46719.00;6275319;22;20038;-72
2023/01/26 03:29:30;;;;;;;121.45;33.70;;;;;;;-145.18;100.00;46713.13;6275525;22;20054;-72
2023/01/26 03:31:57;;;;;;;119.30;32.67;;;;;;;-145.18;100.00;46713.13;6274977;22;19999;-73
2023/01/26 03:34:23;;;;;;;129.43;34.72;;;;;;;-145.18;100.00;46717.03;6275578;22;20004;-73
2023/01/26 03:36:48;;;;;;;128.03;35.77;;;;;;;-145.18;100.00;46719.00;6274351;22;20031;-74
2023/01/26 03:41:06;;;;;;;120.50;33.10;;;;;;;-145.18;100.00;46717.03;6275150;22;20050;-74
2023/01/26 03:58:29;;;;;;;110.55;30.90;;;;;;;-145.18;100.00;46715.09;6251142;22;20023;-74
2023/01/26 04:00:57;;;;;;;111.75;30.92;;;;;;;-145.18;100.00;46713.13;6274205;22;20325;-73
2023/01/26 04:08:50;;;;;;;110.20;30.02;;;;;;;-145.18;100.00;46717.03;6243059;23;20027;-74
2023/01/26 04:11:15;;;;;;;107.87;30.83;;;;;;;-145.18;100.00;46713.13;6243699;23;20020;-74
2023/01/26 04:21:53;;;;;;;104.50;29.60;;;;;;;-145.18;100.00;46720.94;6243137;23;20015;-73
2023/01/26 04:24:21;;;;;;;98.00;29.43;;;;;;;-145.18;100.00;46713.13;6243352;23;20004;-74
2023/01/26 04:26:46;;;;;;;105.70;30.35;;;;;;;-145.18;100.00;46717.03;6243610;23;20349;-73
2023/01/26 04:29:15;;;;;;;111.97;32.07;;;;;;;-145.18;100.00;46703.38;6242814;23;20012;-74
2023/01/26 04:31:41;;;;;;;98.80;30.65;;;;;;;-145.18;100.00;46711.19;6243088;23;20016;-73
2023/01/26 04:34:10;;;;;;;106.32;31.27;;;;;;;-145.18;100.00;46711.19;6215748;23;20011;-73
2023/01/26 04:36:36;;;;;;;95.60;29.80;;;;;;;-145.18;100.00;46711.19;6243193;23;20003;-73
2023/01/26 04:39:01;;;;;;;101.83;30.43;;;;;;;-145.18;100.00;46705.31;6242382;23;20095;-73
2023/01/26 04:41:31;;;;;;;94.83;30.57;;;;;;;-145.18;100.00;46707.28;6215632;23;20018;-73
2023/01/26 04:43:56;;;;;;;99.05;29.20;;;;;;;-145.18;100.00;46717.03;6242196;23;20384;-73
2023/01/26 04:46:22;;;;;;;90.17;28.23;;;;;;;-145.18;100.00;46717.03;6242688;23;20004;-73
2023/01/26 04:48:47;;;;;;;92.37;27.50;;;;;;;-145.18;100.00;46715.09;6242420;23;20068;-73
2023/01/26 04:51:16;;;;;;;94.70;27.50;;;;;;;-145.18;100.00;46713.13;6242434;23;20349;-73
2023/01/26 04:53:42;;;;;;;91.10;28.25;;;;;;;-145.18;100.00;46713.13;6242286;23;20011;-73
2023/01/26 04:56:18;;;;;;;94.20;27.07;;;;;;;-145.18;100.00;46717.03;6242576;23;20036;-73
2023/01/26 04:58:43;;;;;;;89.53;27.13;;;;;;;-145.18;100.00;46713.13;6241621;23;20079;-73
2023/01/26 05:01:09;;;;;;;83.50;25.07;;;;;;;-145.18;100.00;46717.03;6240522;23;20040;-73
2023/01/26 05:03:34;;;;;;;84.00;25.63;;;;;;;-145.18;100.00;46715.09;6213584;23;20091;-73
2023/01/26 05:05:59;;;;;;;85.87;25.60;;;;;;;-145.18;100.00;46713.13;6242432;23;20020;-73
2023/01/26 05:08:25;;;;;;;81.83;26.07;;;;;;;-145.18;100.00;46715.09;6215473;23;20012;-73
2023/01/26 05:10:51;;;;;;;85.13;26.00;;;;;;;-145.18;100.00;46717.03;6239402;23;20113;-73
2023/01/26 05:13:16;;;;;;;85.23;24.63;;;;;;;-145.18;100.00;46713.13;6242072;23;20008;-73
2023/01/26 05:15:42;;;;;;;87.13;26.37;;;;;;;-145.18;100.00;46715.09;6239444;23;20078;-72
2023/01/26 05:18:09;;;;;;;82.37;24.93;;;;;;;-145.18;100.00;46711.19;6241004;23;20456;-72
2023/01/26 05:20:35;;;;;;;73.95;25.13;;;;;;;-145.18;100.00;46715.09;6241640;23;20004;-73
2023/01/26 05:23:00;;;;;;;78.10;25.50;;;;;;;-145.18;100.00;46711.19;6242173;23;20066;-72
2023/01/26 05:25:27;;;;;;;84.37;25.87;;;;;;;-145.18;100.00;46715.09;6242342;23;20095;-72
2023/01/26 05:27:52;;;;;;;85.13;25.45;;;;;;;-145.18;100.00;46705.31;6215212;23;20020;-72
2023/01/26 05:30:18;;;;;;;81.17;24.93;;;;;;;-145.18;100.00;46715.09;6242476;23;20019;-72
2023/01/26 05:32:43;;;;;;;72.70;23.93;;;;;;;-145.18;100.00;46717.03;6242027;23;20019;-72
2023/01/26 05:35:09;;;;;;;69.10;23.90;;;;;;;-145.18;100.00;46711.19;6240213;23;20034;-72
2023/01/26 05:37:35;;;;;;;70.57;22.63;;;;;;;-145.18;100.00;46715.09;6241172;23;20026;-72
2023/01/26 05:40:00;;;;;;;77.17;23.50;;;;;;;-145.18;100.00;46715.09;6240736;23;20011;-72
2023/01/26 05:42:26;;;;;;;77.03;23.70;;;;;;;-145.18;100.00;46715.09;6240796;23;20460;-72
2023/01/26 05:44:52;;;;;;;77.87;24.80;;;;;;;-145.18;100.00;46715.09;6241173;23;20087;-72
2023/01/26 05:47:18;;;;;;;78.07;24.17;;;;;;;-145.18;100.00;46717.03;6242168;23;20417;-72
2023/01/26 05:49:44;;;;;;;71.33;22.67;;;;;;;-145.18;100.00;46711.19;6242519;23;20012;-72
2023/01/26 05:52:18;;;;;;;82.75;25.05;;;;;;;-145.18;100.00;46715.09;6241739;23;20086;-72
2023/01/26 05:54:44;;;;;;;69.78;23.00;;;;;;;-145.18;100.00;46713.13;6241190;23;20452;-72
2023/01/26 05:57:10;;;;;;;68.87;22.40;;;;;;;-145.18;100.00;46713.13;6234495;23;20008;-72
2023/01/26 05:59:36;;;;;;;74.03;24.15;;;;;;;-145.18;100.00;46715.09;6241657;23;20342;-72
2023/01/26 06:02:01;;;;;;;70.23;22.87;;;;;;;-145.18;100.00;46715.09;6241856;23;20012;-72
2023/01/26 06:04:27;;;;;;;71.57;22.73;;;;;;;-145.18;100.00;46711.19;6214844;23;20011;-72
2023/01/26 06:06:57;;;;;;;81.53;23.70;;;;;;;-145.18;100.00;46715.09;6242087;23;20054;-72
2023/01/26 06:09:23;;;;;;;82.00;23.63;;;;;;;-145.18;100.00;46715.09;6242066;23;20012;-72
2023/01/26 06:11:49;;;;;;;74.73;22.83;;;;;;;-145.18;100.00;46715.09;6241883;23;20107;-71
2023/01/26 06:14:14;;;;;;;74.05;23.85;;;;;;;-145.18;100.00;46711.19;6242051;23;20087;-72
2023/01/26 06:16:40;;;;;;;77.13;24.57;;;;;;;-145.18;100.00;46717.03;6242216;23;20623;-71
2023/01/26 06:19:05;;;;;;;66.03;21.27;;;;;;;-145.18;100.00;46715.09;6241131;23;20008;-72
2023/01/26 06:21:31;;;;;;;71.87;22.67;;;;;;;-145.18;100.00;46717.03;6241848;23;20083;-71
2023/01/26 06:23:57;;;;;;;71.83;23.07;;;;;;;-145.18;100.00;46713.13;6241233;23;20019;-71
2023/01/26 06:26:23;;;;;;;74.30;22.80;;;;;;;-145.18;100.00;46717.03;6241722;23;20423;-71
2023/01/26 06:28:50;;;;;;;76.45;23.92;;;;;;;-145.18;100.00;46717.03;6214624;23;20093;-71
2023/01/26 06:31:16;;;;;;;76.57;23.23;;;;;;;-145.18;100.00;46715.09;6242288;23;20008;-71
2023/01/26 06:33:41;;;;;;;73.77;22.27;;;;;;;-145.18;100.00;46713.13;6242069;23;20004;-71
2023/01/26 06:36:09;;;;;;;71.03;22.77;;;;;;;-145.18;100.00;46719.00;6242252;23;20009;-71
2023/01/26 06:38:35;;;;;;;66.68;21.83;;;;;;;-145.18;100.00;46717.03;6241753;23;20007;-71
2023/01/26 06:41:03;;;;;;;67.88;22.13;;;;;;;-145.18;100.00;46715.09;6242180;23;20016;-71
2023/01/26 06:43:29;;;;;;;75.43;22.35;;;;;;;-145.18;100.00;46719.00;6243612;23;20047;-71
2023/01/26 06:45:56;;;;;;;73.80;21.73;;;;;;;-145.18;100.00;46717.03;6244142;23;20079;-71
2023/01/26 06:48:22;;;;;;;65.05;22.60;;;;;;;-145.18;100.00;46717.03;6243469;23;20008;-70
2023/01/26 06:50:50;;;;;;;71.33;24.43;;;;;;;-145.18;100.00;46715.09;6244058;23;20012;-71
2023/01/26 06:53:40;;;;;;;79.57;25.25;;;;;;;-145.18;100.00;46715.09;6243676;23;20008;-70
2023/01/26 06:56:05;;;;;;;68.15;22.20;;;;;;;-145.18;100.00;46711.19;6244138;23;20004;-70
2023/01/26 06:58:31;;;;;;;68.90;24.13;;;;;;;-145.18;100.00;46715.09;6243617;23;20451;-70
2023/01/26 07:00:56;;;;;;;71.40;22.57;;;;;;;-145.18;100.00;46715.09;6243714;23;20016;-70
2023/01/26 07:03:22;;;;;;;69.47;23.13;;;;;;;-145.18;100.00;46715.09;6242014;23;20516;-70
2023/01/26 07:05:47;;;;;;;69.37;22.17;;;;;;;-145.18;100.00;46713.13;6243807;23;20020;-71
2023/01/26 07:08:12;;;;;;;63.40;20.83;;;;;;;-145.18;100.00;46713.13;6243384;23;20008;-71
2023/01/26 07:10:38;;;;;;;67.40;21.63;;;;;;;-145.18;100.00;46715.09;6243280;23;20440;-71
2023/01/26 07:13:04;;;;;;;71.63;22.80;;;;;;;-145.18;100.00;46717.03;6242930;23;20081;-71
2023/01/26 07:15:30;;;;;;;65.72;20.92;;;;;;;-145.18;100.00;46719.00;6243665;23;20318;-71
2023/01/26 07:17:56;;;;;;;66.57;21.33;;;;;;;-145.18;100.00;46719.00;6243034;23;20012;-71
2023/01/26 07:20:22;;;;;;;61.97;21.65;;;;;;;-145.18;100.00;46715.09;6243614;23;20016;-71
2023/01/26 07:22:48;;;;;;;67.07;21.83;;;;;;;-145.18;100.00;46715.09;6240237;23;20086;-71
2023/01/26 07:25:15;;;;;;;70.30;22.92;;;;;;;-145.18;100.00;46717.03;6241425;23;20008;-71
2023/01/26 07:27:40;;;;;;;60.67;21.45;;;;;;;-145.18;100.00;46707.28;6242135;23;20008;-71
2023/01/26 07:30:06;;;;;;;58.47;20.17;;;;;;;-145.18;100.00;46717.03;6213849;23;20429;-71
2023/01/26 07:32:32;;;;;;;75.38;21.08;;;;;;;-145.18;100.00;46715.09;6241851;23;20012;-71
2023/01/26 07:34:57;;;;;;;67.93;21.23;;;;;;;-145.18;100.00;46719.00;6214614;23;20468;-71
2023/01/26 07:37:26;;;;;;;64.93;21.73;;;;;;;-145.18;100.00;46719.00;6243698;23;20019;-71
2023/01/26 07:39:52;;;;;;;65.22;21.73;;;;;;;-145.18;100.00;46715.09;6190970;23;20384;-71
2023/01/26 07:42:17;;;;;;;70.73;23.67;;;;;;;-145.18;100.00;46713.13;6243697;23;20008;-71
2023/01/26 07:44:42;;;;;;;73.57;22.90;;;;;;;-145.18;100.00;46719.00;6243055;23;20429;-71
2023/01/26 07:47:08;;;;;;;73.40;22.53;;;;;;;-145.18;100.00;46713.13;6243462;23;20012;-71
2023/01/26 07:49:33;;;;;;;72.00;23.97;;;;;;;-145.18;100.00;46719.00;6243412;23;20085;-71
2023/01/26 07:51:59;;;;;;;76.90;24.33;;;;;;;-145.18;100.00;46715.09;6242970;23;20000;-71
2023/01/26 07:54:24;;;;;;;88.30;25.87;;;;;;;-145.18;100.00;46717.03;6243172;23;20009;-72
2023/01/26 07:56:51;;;;;;;88.23;25.83;;;;;;;-145.18;100.00;46717.03;6243287;23;20366;-71
2023/01/26 07:59:17;;;;;;;82.40;27.05;;;;;;;-145.18;100.00;46713.13;6243068;23;20015;-71
2023/01/26 08:01:42;;;;;;;93.80;27.10;;;;;;;-145.18;100.00;46717.03;6216603;23;20091;-71
2023/01/26 08:04:07;;;;;;;99.17;27.30;;;;;;;-145.18;100.00;46715.09;6215584;23;20360;-72
2023/01/26 08:06:33;;;;;;;112.43;28.47;;;;;;;-145.18;100.00;46717.03;6243638;23;20058;-72
2023/01/26 08:08:58;;;;;;;105.37;28.27;;;;;;;-145.18;100.00;46715.09;6242967;23;20009;-72
2023/01/26 08:11:24;;;;;;;133.00;27.97;;;;;;;-145.18;100.00;46715.09;6242903;23;20012;-72
2023/01/26 08:13:50;;;;;;;179.73;32.03;;;;;;;-145.18;100.00;46711.19;6243042;23;20326;-72
2023/01/26 08:16:15;;;;;;;162.83;28.80;;;;;;;-145.18;100.00;46707.28;6243406;23;20007;-72
2023/01/26 08:18:42;;;;;;;146.37;30.40;;;;;;;-145.18;100.00;46709.22;6243118;23;20016;-72
2023/01/26 08:21:09;;;;;;;140.95;28.63;;;;;;;-145.18;100.00;46711.19;6242959;23;20456;-72
2023/01/26 08:23:34;;;;;;;146.63;29.48;;;;;;;-145.18;100.00;46709.22;6242829;23;20074;-72
2023/01/26 08:26:05;;;;;;;140.37;30.03;;;;;;;-145.18;100.00;46711.19;6242939;23;20544;-72
2023/01/26 08:28:31;;;;;;;115.95;27.75;;;;;;;-145.18;100.00;46707.28;6243015;23;20050;-72
2023/01/26 08:31:06;;;;;;;109.07;27.93;;;;;;;-145.18;100.00;46713.13;6243041;23;20016;-72
2023/01/26 08:33:32;;;;;;;97.25;23.27;;;;;;;-145.18;100.00;46713.13;6242888;23;20030;-72
2023/01/26 08:36:06;;;;;;;107.28;27.58;;;;;;;-145.18;100.00;46705.31;6216231;23;20028;-72
2023/01/26 08:38:33;;;;;;;126.63;29.80;;;;;;;-145.18;100.00;46709.22;6242881;23;20008;-72
2023/01/26 08:40:59;;;;;;;109.05;27.75;;;;;;;-145.18;100.00;46703.38;6242912;23;20015;-72
2023/01/26 08:43:24;;;;;;;104.77;28.17;;;;;;;-145.18;100.00;46703.38;6243060;23;20000;-72
2023/01/26 08:45:50;;;;;;;116.27;30.87;;;;;;;-145.18;100.00;46701.41;6215983;23;20060;-72
2023/01/26 08:48:15;;;;;;;100.87;25.97;;;;;;;-145.18;100.00;46695.56;6216030;23;20016;-72
2023/01/26 08:50:41;;;;;;;107.93;28.17;;;;;;;-145.18;100.00;46701.41;6243249;23;20019;-72
2023/01/26 08:53:06;;;;;;;94.90;25.37;;;;;;;-145.18;100.00;46699.47;6242586;23;20012;-72
2023/01/26 08:55:33;;;;;;;98.10;25.50;;;;;;;-145.18;100.00;46699.47;6243007;23;20004;-72
2023/01/26 08:57:59;;;;;;;89.27;23.50;;;;;;;-145.18;100.00;46697.50;6242574;23;20008;-72
2023/01/26 09:00:25;;;;;;;90.00;22.37;;;;;;;-145.18;100.00;46693.59;6243170;23;20337;-72
2023/01/26 09:02:57;;;;;;;90.37;23.47;;;;;;;-145.18;100.00;46699.47;6242488;23;20671;-72
2023/01/26 09:05:22;;;;;;;92.53;22.63;;;;;;;-145.18;100.00;46695.56;6242881;23;20705;-72
2023/01/26 09:07:48;;;;;;;87.03;24.53;;;;;;;-145.18;100.00;46699.47;6242590;23;20240;-72
2023/01/26 09:10:13;;;;;;;82.57;20.50;;;;;;;-145.18;100.00;46695.56;6242439;23;20004;-73
2023/01/26 09:12:39;;;;;;;84.67;24.00;;;;;;;-145.18;100.00;46697.50;6243169;23;20323;-72
2023/01/26 09:15:05;;;;;;;92.70;24.57;;;;;;;-145.18;100.00;46693.59;6242499;23;20480;-73
2023/01/26 09:17:31;;;;;;;100.07;26.10;;;;;;;-145.18;100.00;46693.59;6242743;23;20011;-73
2023/01/26 09:19:56;;;;;;;98.43;23.87;;;;;;;-145.18;100.00;46697.50;6242390;23;20257;-73
2023/01/26 09:22:21;;;;;;;91.90;22.80;;;;;;;-145.18;100.00;46695.56;6215881;23;20012;-73
2023/01/26 09:24:47;;;;;;;89.80;23.00;;;;;;;-145.18;100.00;46695.56;6242501;23;20039;-73
2023/01/26 09:27:13;;;;;;;86.60;22.13;;;;;;;-145.18;100.00;46695.56;6242546;23;20011;-72
2023/01/26 09:29:38;;;;;;;83.47;21.80;;;;;;;-145.18;100.00;46695.56;6215757;23;20004;-73
2023/01/26 09:32:04;;;;;;;87.57;21.90;;;;;;;-145.18;100.00;46691.66;6242491;23;20012;-72
2023/01/26 09:34:29;;;;;;;110.80;24.00;;;;;;;-145.18;100.00;46699.47;6242025;23;20015;-72
2023/01/26 09:36:54;;;;;;;91.07;23.87;;;;;;;-145.18;100.00;46693.59;6242409;23;20008;-73
2023/01/26 09:39:20;;;;;;;83.00;20.47;;;;;;;-145.18;100.00;46689.69;6242183;23;20004;-72
2023/01/26 09:42:39;;;;;;;80.70;21.23;;;;;;;-145.18;100.00;46691.66;6242574;23;20008;-72
2023/01/26 09:45:10;;;;;;;89.83;21.40;;;;;;;-145.18;100.00;46689.69;6090036;23;20010;-72
2023/01/26 09:47:54;;;;;;;97.70;22.40;;;;;;;-145.18;100.00;46687.75;6235965;23;20317;-73
2023/01/26 09:50:25;;;;;;;84.63;21.53;;;;;;;-145.18;100.00;46683.84;6241245;23;20251;-73
2023/01/26 09:53:09;;;;;;;80.17;20.47;;;;;;;-145.18;100.00;46683.84;6241715;23;20221;-73
2023/01/26 09:55:35;;;;;;;73.77;17.87;;;;;;;-145.18;100.00;46677.97;6242303;23;20226;-73
2023/01/26 09:58:27;;;;;;;69.83;18.27;;;;;;;-145.18;100.00;46677.97;6242116;23;20234;-73
2023/01/26 10:00:59;;;;;;;70.63;17.13;;;;;;;-145.18;100.00;46681.88;6238382;23;20008;-73
2023/01/26 10:03:49;;;;;;;81.37;18.67;;;;;;;-145.18;100.00;46679.94;6224875;23;20750;-73
2023/01/26 10:06:25;;;;;;;65.13;15.37;;;;;;;-145.18;100.00;46679.94;6242100;23;20674;-73
2023/01/26 10:08:53;;;;;;;64.03;16.20;;;;;;;-145.18;100.00;46687.75;6240962;23;20229;-73
2023/01/26 10:11:31;;;;;;;59.17;16.10;;;;;;;-145.18;100.00;46681.88;6241863;23;20536;-73
2023/01/26 10:14:03;;;;;;;80.47;18.40;;;;;;;-145.18;100.00;46679.94;6241481;23;20230;-73
2023/01/26 10:16:32;;;;;;;61.63;16.63;;;;;;;-145.18;100.00;46674.06;6242708;23;20233;-73
2023/01/26 10:19:05;;;;;;;67.10;13.87;;;;;;;-145.18;100.00;46677.97;6243541;23;20682;-73
2023/01/26 10:21:39;;;;;;;60.60;14.53;;;;;;;-145.18;100.00;46679.94;6244196;23;20320;-73
2023/01/26 10:24:07;;;;;;;60.43;12.13;;;;;;;-145.18;100.00;46679.94;6243507;23;20304;-73
2023/01/26 10:26:33;;;;;;;55.97;11.67;;;;;;;-145.18;100.00;46674.06;6217097;23;20558;-72
2023/01/26 10:28:58;;;;;;;53.47;9.17;;;;;;;-145.18;100.00;46681.88;6243054;23;20234;-73
2023/01/26 10:31:27;;;;;;;44.40;6.83;;;;;;;-145.18;100.00;46677.97;6244004;23;20637;-73
2023/01/26 10:33:56;;;;;;;22.37;4.20;;;;;;;-145.18;100.00;46681.88;6243489;23;20077;-73
2023/01/26 10:36:22;;;;;;;32.73;4.20;;;;;;;-145.18;100.00;46677.97;6244069;23;20234;-73
2023/01/26 10:38:48;;;;;;;43.50;5.10;;;;;;;-145.18;100.00;46685.78;6243429;23;20240;-73
2023/01/26 10:41:16;;;;;;;35.57;4.47;;;;;;;-145.18;100.00;46681.88;6243818;23;20079;-73
2023/01/26 10:43:59;;;;;;;44.73;3.80;;;;;;;-145.18;100.00;46689.69;6243700;23;20593;-73
2023/01/26 10:46:26;;;;;;;33.77;4.30;;;;;;;-145.18;100.00;46683.84;6244098;23;20218;-73
2023/01/26 10:49:01;;;;;;;43.93;5.13;;;;;;;-145.18;100.00;46685.78;6243179;23;20554;-73
2023/01/26 10:51:32;;;;;;;31.10;3.85;;;;;;;-145.18;100.00;46685.78;6243899;23;20233;-74
2023/01/26 10:54:17;;;;;;;37.47;4.73;;;;;;;-145.18;100.00;46683.84;6243733;23;20004;-73
2023/01/26 10:56:45;;;;;;;49.55;5.28;;;;;;;-145.18;100.00;46689.69;6243929;23;20233;-74
2023/01/26 10:59:17;;;;;;;39.53;5.23;;;;;;;-145.18;100.00;46687.75;6243495;23;20078;-74
2023/01/26 11:01:55;;;;;;;47.30;4.77;;;;;;;-145.18;100.00;46691.66;6243585;23;20320;-74
2023/01/26 11:04:21;;;;;;;28.70;4.33;;;;;;;-145.18;100.00;46691.66;6243301;23;20279;-75
2023/01/26 11:06:47;;;;;;;33.87;3.50;;;;;;;-145.18;100.00;46693.59;6242969;23;20230;-74
2023/01/26 11:09:12;;;;;;;30.73;5.60;;;;;;;-145.18;100.00;46691.66;6216554;23;20241;-75
2023/01/26 11:11:38;;;;;;;29.20;3.93;;;;;;;-145.18;100.00;46693.59;6243573;23;20004;-75
2023/01/26 11:14:18;;;;;;;21.53;3.33;;;;;;;-145.18;100.00;46691.66;6243276;23;20015;-75
2023/01/26 11:16:55;;;;;;;24.50;3.40;;;;;;;-145.18;100.00;46695.56;6243451;23;20139;-75
2023/01/26 11:20:01;;;;;;;25.00;3.93;;;;;;;-145.18;100.00;46699.47;6243516;23;20229;-75
2023/01/26 11:22:41;;;;;;;36.03;4.23;;;;;;;-145.18;100.00;46699.47;6243425;23;20274;-75
2023/01/26 11:25:23;;;;;;;28.60;3.87;;;;;;;-145.18;100.00;46701.41;6243006;23;20312;-75
2023/01/26 11:28:27;;;;;;;28.30;3.10;;;;;;;-145.18;100.00;46701.41;6216170;23;20230;-75
2023/01/26 11:30:52;;;;;;;30.73;3.13;;;;;;;-145.18;100.00;46703.38;6091380;23;20571;-75
2023/01/26 11:33:48;;;;;;;23.17;3.20;;;;;;;-145.18;100.00;46705.31;6214118;23;20316;-75
2023/01/26 11:36:41;;;;;;;34.10;3.75;;;;;;;-145.18;100.00;46707.28;6243119;23;20031;-74
2023/01/26 11:39:24;;;;;;;22.50;2.63;;;;;;;-145.18;100.00;46705.31;6242868;23;20054;-75
2023/01/26 11:42:08;;;;;;;26.53;3.00;;;;;;;-145.18;100.00;46703.38;6243296;23;20308;-75
2023/01/26 11:44:58;;;;;;;23.10;3.60;;;;;;;-145.18;100.00;46689.69;6242781;23;20252;-75